createdAt,value
2022-08-22T00:00:15.260Z,99.90
2022-08-22T00:02:54.799Z,89.20
2022-08-22T00:02:59.904Z,87.40
2022-08-22T00:06:00.422Z,99.90
2022-08-22T00:08:36.456Z,99.90
2022-08-22T00:11:15.031Z,99.90
2022-08-22T00:14:01.992Z,99.90
2022-08-22T00:16:40.864Z,99.90
2022-08-22T00:19:19.666Z,99.90
2022-08-22T00:21:58.081Z,99.90
2022-08-22T00:24:32.433Z,99.90
2022-08-22T00:27:06.221Z,99.90
2022-08-22T00:29:43.533Z,99.90
2022-08-22T00:32:20.754Z,99.90
2022-08-22T00:34:59.506Z,99.90
2022-08-22T00:37:35.202Z,99.90
2022-08-22T00:40:20.219Z,99.90
2022-08-22T00:43:07.908Z,99.90
2022-08-22T00:46:09.144Z,99.90
2022-08-22T00:49:03.176Z,99.90
2022-08-22T00:51:59.834Z,99.90
2022-08-22T00:54:47.675Z,99.90
2022-08-22T00:57:35.557Z,99.90
2022-08-22T01:00:12.030Z,99.90
2022-08-22T01:03:11.524Z,99.90
2022-08-22T01:05:59.395Z,99.90
2022-08-22T01:08:55.651Z,99.90
2022-08-22T01:11:41.983Z,99.90
2022-08-22T01:14:34.548Z,99.90
2022-08-22T01:17:34.992Z,99.90
2022-08-22T01:20:45.528Z,99.90
2022-08-22T01:23:44.211Z,99.90
2022-08-22T01:26:51.135Z,99.90
2022-08-22T01:29:53.880Z,99.90
2022-08-22T01:32:58.345Z,99.90
2022-08-22T01:35:59.583Z,99.90
2022-08-22T01:38:58.145Z,99.90
2022-08-22T01:42:07.261Z,99.90
2022-08-22T01:45:00.333Z,99.90
2022-08-22T01:47:36.699Z,99.90
2022-08-22T01:50:20.514Z,99.90
2022-08-22T01:52:55.131Z,99.90
2022-08-22T01:55:32.403Z,99.90
2022-08-22T01:58:03.935Z,99.90
2022-08-22T02:00:52.916Z,99.90
2022-08-22T02:03:28.203Z,99.90
2022-08-22T02:06:05.249Z,99.90
2022-08-22T02:08:45.707Z,99.90
2022-08-22T02:11:35.323Z,99.90
2022-08-22T02:14:16.364Z,99.90
2022-08-22T02:16:49.047Z,99.90
2022-08-22T02:19:33.210Z,99.90
2022-08-22T02:22:09.170Z,99.90
2022-08-22T02:24:49.616Z,99.90
2022-08-22T02:27:27.196Z,99.90
2022-08-22T02:30:09.373Z,99.90
2022-08-22T02:32:51.703Z,99.90
2022-08-22T02:35:30.261Z,99.90
2022-08-22T02:38:17.169Z,99.90
2022-08-22T02:40:55.176Z,99.90
2022-08-22T02:43:29.044Z,99.90
2022-08-22T02:46:05.256Z,99.90
2022-08-22T02:48:43.593Z,99.90
2022-08-22T02:51:21.138Z,99.90
2022-08-22T02:53:56.581Z,99.90
2022-08-22T02:56:36.086Z,99.90
2022-08-22T02:59:17.947Z,99.90
2022-08-22T03:01:49.239Z,99.90
2022-08-22T03:04:26.226Z,99.90
2022-08-22T03:07:10.967Z,99.90
2022-08-22T03:09:48.754Z,99.90
2022-08-22T03:12:29.669Z,99.90
2022-08-22T03:15:13.160Z,99.90
2022-08-22T03:17:51.968Z,99.90
2022-08-22T03:20:38.232Z,99.90
2022-08-22T03:23:16.553Z,99.90
2022-08-22T03:25:55.891Z,99.90
2022-08-22T03:28:34.426Z,99.90
2022-08-22T03:31:14.989Z,99.90
2022-08-22T03:33:46.079Z,99.90
2022-08-22T03:36:30.123Z,99.90
2022-08-22T03:39:17.406Z,99.90
2022-08-22T03:42:23.295Z,99.90
2022-08-22T03:45:29.622Z,99.90
2022-08-22T03:48:40.430Z,99.90
2022-08-22T03:51:34.958Z,99.90
2022-08-22T03:54:37.384Z,99.90
2022-08-22T03:57:46.214Z,99.90
2022-08-22T04:00:59.240Z,99.90
2022-08-22T04:04:05.749Z,99.90
2022-08-22T04:07:28.384Z,99.90
2022-08-22T04:11:03.472Z,99.90
2022-08-22T04:13:56.851Z,99.90
2022-08-22T04:17:02.440Z,99.90
2022-08-22T04:19:54.665Z,99.90
2022-08-22T04:22:59.875Z,99.90
2022-08-22T04:25:35.701Z,99.90
2022-08-22T04:28:28.665Z,99.90
2022-08-22T04:31:06.612Z,99.90
2022-08-22T04:33:41.463Z,99.90
2022-08-22T04:36:50.855Z,99.90
2022-08-22T04:39:26.556Z,99.90
2022-08-22T04:42:16.359Z,99.90
2022-08-22T04:44:57.766Z,99.90
2022-08-22T04:47:33.976Z,99.90
2022-08-22T04:50:10.446Z,99.90
2022-08-22T04:53:03.667Z,99.90
2022-08-22T04:55:39.240Z,99.90
2022-08-22T04:58:23.955Z,99.90
2022-08-22T05:00:58.983Z,99.90
2022-08-22T05:03:30.354Z,99.90
2022-08-22T05:06:02.858Z,99.90
2022-08-22T05:08:36.620Z,99.90
2022-08-22T05:11:11.973Z,99.90
2022-08-22T05:13:47.188Z,99.90
2022-08-22T05:16:21.770Z,99.90
2022-08-22T05:18:58.612Z,99.90
2022-08-22T05:21:36.664Z,99.90
2022-08-22T05:24:13.911Z,99.90
2022-08-22T05:26:48.233Z,99.90
2022-08-22T05:29:22.821Z,99.90
2022-08-22T05:31:56.132Z,99.90
2022-08-22T05:34:27.106Z,99.90
2022-08-22T05:37:01.703Z,99.90
2022-08-22T05:39:34.416Z,99.90
2022-08-22T05:42:05.166Z,99.90
2022-08-22T05:44:37.768Z,99.90
2022-08-22T05:47:21.707Z,99.90
2022-08-22T05:50:00.008Z,99.90
2022-08-22T05:52:42.321Z,99.90
2022-08-22T05:55:24.454Z,99.90
2022-08-22T05:58:14.209Z,99.90
2022-08-22T06:00:47.673Z,99.90
2022-08-22T06:03:21.028Z,99.90
2022-08-22T06:05:54.257Z,99.90
2022-08-22T06:08:29.809Z,99.90
2022-08-22T06:11:04.754Z,99.90
2022-08-22T06:13:41.333Z,99.90
2022-08-22T06:16:17.106Z,99.90
2022-08-22T06:18:46.947Z,99.90
2022-08-22T06:21:22.415Z,99.90
2022-08-22T06:23:56.911Z,99.40
2022-08-22T06:26:31.415Z,98.50
2022-08-22T06:29:02.847Z,97.30
2022-08-22T06:31:35.667Z,96.30
2022-08-22T06:34:09.475Z,95.80
2022-08-22T06:36:41.323Z,95.20
2022-08-22T06:39:18.718Z,94.80
2022-08-22T06:41:54.016Z,94.80
2022-08-22T06:44:27.035Z,94.60
2022-08-22T06:47:00.030Z,93.50
2022-08-22T06:49:31.338Z,93.30
2022-08-22T06:52:03.574Z,92.80
2022-08-22T06:54:36.499Z,92.40
2022-08-22T06:57:08.197Z,92.30
2022-08-22T06:59:40.566Z,92.00
2022-08-22T07:02:18.207Z,91.00
2022-08-22T07:04:50.686Z,91.50
2022-08-22T07:07:21.244Z,91.30
2022-08-22T07:09:55.573Z,90.80
2022-08-22T07:12:30.734Z,90.60
2022-08-22T07:15:12.501Z,90.20
2022-08-22T07:17:50.916Z,89.80
2022-08-22T07:20:26.031Z,89.70
2022-08-22T07:22:57.405Z,89.70
2022-08-22T07:25:26.991Z,89.20
2022-08-22T07:28:07.892Z,88.70
2022-08-22T07:30:46.445Z,88.20
2022-08-22T07:33:29.944Z,87.80
2022-08-22T07:36:04.275Z,87.00
2022-08-22T07:38:43.805Z,86.10
2022-08-22T07:41:16.723Z,86.00
2022-08-22T07:43:49.905Z,86.20
2022-08-22T07:46:28.989Z,85.40
2022-08-22T07:49:10.014Z,84.60
2022-08-22T07:51:45.197Z,84.00
2022-08-22T07:54:16.720Z,83.50
2022-08-22T07:56:53.276Z,83.10
2022-08-22T07:59:24.487Z,83.20
2022-08-22T08:01:57.045Z,82.30
2022-08-22T08:04:30.976Z,82.40
2022-08-22T08:07:01.912Z,82.10
2022-08-22T08:09:37.141Z,82.80
2022-08-22T08:12:09.166Z,82.70
2022-08-22T08:14:42.530Z,82.20
2022-08-22T08:17:18.018Z,81.80
2022-08-22T08:19:48.172Z,81.20
2022-08-22T08:22:21.653Z,81.10
2022-08-22T08:24:52.508Z,80.90
2022-08-22T08:27:42.785Z,80.70
2022-08-22T08:30:20.046Z,79.50
2022-08-22T08:32:57.543Z,79.20
2022-08-22T08:36:02.373Z,78.40
2022-08-22T08:38:37.295Z,78.90
2022-08-22T08:41:37.348Z,77.00
2022-08-22T08:44:18.289Z,78.60
2022-08-22T08:47:26.025Z,77.70
2022-08-22T08:50:20.740Z,77.10
2022-08-22T08:53:28.317Z,76.80
2022-08-22T08:56:05.226Z,76.60
2022-08-22T08:58:41.066Z,75.60
2022-08-22T09:01:29.751Z,75.90
2022-08-22T09:04:27.496Z,75.60
2022-08-22T09:07:36.452Z,76.40
2022-08-22T09:10:20.686Z,76.40
2022-08-22T09:13:12.281Z,74.90
2022-08-22T09:16:13.233Z,73.90
2022-08-22T09:19:08.705Z,73.80
2022-08-22T09:22:04.230Z,72.40
2022-08-22T09:25:01.504Z,72.80
2022-08-22T09:27:40.220Z,72.80
2022-08-22T09:30:12.989Z,71.70
2022-08-22T09:32:48.844Z,71.10
2022-08-22T09:35:29.528Z,71.90
2022-08-22T09:38:20.256Z,70.00
2022-08-22T09:40:55.056Z,69.70
2022-08-22T09:43:33.709Z,69.70
2022-08-22T09:46:13.363Z,70.60
2022-08-22T09:48:59.726Z,69.00
2022-08-22T09:51:38.990Z,68.10
2022-08-22T09:54:36.350Z,65.10
2022-08-22T09:57:33.601Z,63.90
2022-08-22T10:00:22.470Z,63.80
2022-08-22T10:03:07.546Z,61.70
2022-08-22T10:05:45.653Z,60.80
2022-08-22T10:08:31.546Z,60.70
2022-08-22T10:11:19.725Z,61.80
2022-08-22T10:14:00.861Z,62.70
2022-08-22T10:16:58.739Z,62.30
2022-08-22T10:19:34.251Z,61.30
2022-08-22T10:22:24.256Z,59.60
2022-08-22T10:25:12.811Z,60.30
2022-08-22T10:28:02.303Z,60.50
2022-08-22T10:30:37.698Z,61.50
2022-08-22T10:33:16.904Z,62.00
2022-08-22T10:35:59.384Z,62.80
2022-08-22T10:38:31.914Z,62.70
2022-08-22T10:41:09.885Z,63.20
2022-08-22T10:43:49.442Z,62.40
2022-08-22T10:46:35.975Z,62.30
2022-08-22T10:49:10.132Z,60.70
2022-08-22T10:51:48.455Z,60.70
2022-08-22T10:54:30.139Z,60.90
2022-08-22T10:57:11.546Z,60.50
2022-08-22T10:59:47.873Z,60.70
2022-08-22T11:02:55.663Z,61.20
2022-08-22T11:05:50.061Z,61.20
2022-08-22T11:08:37.423Z,62.10
2022-08-22T11:11:19.617Z,62.20
2022-08-22T11:14:09.465Z,62.10
2022-08-22T11:16:55.341Z,61.30
2022-08-22T11:19:44.762Z,61.30
2022-08-22T11:22:30.669Z,60.80
2022-08-22T11:25:23.788Z,60.00
2022-08-22T11:28:26.037Z,59.70
2022-08-22T11:31:07.253Z,59.40
2022-08-22T11:33:46.335Z,60.70
2022-08-22T11:36:31.935Z,61.10
2022-08-22T11:39:13.758Z,60.40
2022-08-22T11:41:56.664Z,60.70
2022-08-22T11:44:32.060Z,61.50
2022-08-22T11:47:09.281Z,60.60
2022-08-22T11:49:52.430Z,60.60
2022-08-22T11:52:28.339Z,60.10
2022-08-22T11:55:22.345Z,59.90
2022-08-22T11:57:54.291Z,60.60
2022-08-22T12:00:30.333Z,59.30
2022-08-22T12:03:23.526Z,59.30
2022-08-22T12:05:59.589Z,59.40
2022-08-22T12:09:01.792Z,57.40
2022-08-22T12:11:42.179Z,56.10
2022-08-22T12:14:20.212Z,55.90
2022-08-22T12:17:28.471Z,56.30
2022-08-22T12:20:16.368Z,56.40
2022-08-22T12:23:11.202Z,56.70
2022-08-22T12:25:57.185Z,56.30
2022-08-22T12:28:36.637Z,55.40
2022-08-22T12:31:16.995Z,54.60
2022-08-22T12:34:02.376Z,52.00
2022-08-22T12:37:00.709Z,51.90
2022-08-22T12:40:03.945Z,53.30
2022-08-22T12:43:05.221Z,53.70
2022-08-22T12:45:56.296Z,53.30
2022-08-22T12:48:45.591Z,51.10
2022-08-22T12:51:29.486Z,51.20
2022-08-22T12:54:24.479Z,51.30
2022-08-22T12:57:03.293Z,50.20
2022-08-22T12:59:55.908Z,50.70
2022-08-22T13:02:29.776Z,49.60
2022-08-22T13:05:03.645Z,50.40
2022-08-22T13:07:37.966Z,51.30
2022-08-22T13:10:39.399Z,52.50
2022-08-22T13:13:14.227Z,51.80
2022-08-22T13:15:53.604Z,51.60
2022-08-22T13:18:31.103Z,52.50
2022-08-22T13:21:04.546Z,54.90
2022-08-22T13:23:39.636Z,53.70
2022-08-22T13:26:12.765Z,52.00
2022-08-22T13:29:24.005Z,51.60
2022-08-22T13:31:55.354Z,53.70
2022-08-22T13:34:40.128Z,52.90
2022-08-22T13:37:16.377Z,51.00
2022-08-22T13:39:49.148Z,48.90
2022-08-22T13:42:30.561Z,49.90
2022-08-22T13:45:11.827Z,49.70
2022-08-22T13:47:56.034Z,51.20
2022-08-22T13:50:30.081Z,51.80
2022-08-22T13:53:30.472Z,52.20
2022-08-22T13:56:07.326Z,52.60
2022-08-22T13:58:47.234Z,53.40
2022-08-22T14:01:44.729Z,54.30
2022-08-22T14:04:32.208Z,55.00
2022-08-22T14:07:25.455Z,54.70
2022-08-22T14:09:59.516Z,53.40
2022-08-22T14:12:50.677Z,50.20
2022-08-22T14:15:23.537Z,48.80
2022-08-22T14:17:57.728Z,48.50
2022-08-22T14:20:33.441Z,48.00
2022-08-22T14:23:08.829Z,47.70
2022-08-22T14:25:41.255Z,47.80
2022-08-22T14:28:23.174Z,47.90
2022-08-22T14:31:01.915Z,47.20
2022-08-22T14:33:39.725Z,47.80
2022-08-22T14:36:17.397Z,48.20
2022-08-22T14:38:51.744Z,49.30
2022-08-22T14:41:52.430Z,49.20
2022-08-22T14:44:24.144Z,48.90
2022-08-22T14:46:56.417Z,47.70
2022-08-22T14:49:52.336Z,48.40
2022-08-22T14:52:38.191Z,47.20
2022-08-22T14:55:17.459Z,46.90
2022-08-22T14:57:55.628Z,47.00
2022-08-22T15:00:32.452Z,46.80
2022-08-22T15:03:14.180Z,46.70
2022-08-22T15:05:47.790Z,45.70
2022-08-22T15:08:27.489Z,46.00
2022-08-22T15:11:22.351Z,46.20
2022-08-22T15:13:57.095Z,46.20
2022-08-22T15:16:32.971Z,47.10
2022-08-22T15:19:02.970Z,48.20
2022-08-22T15:21:41.267Z,47.40
2022-08-22T15:24:17.343Z,47.10
2022-08-22T15:26:52.300Z,47.70
2022-08-22T15:29:26.810Z,48.20
2022-08-22T15:32:04.712Z,49.40
2022-08-22T15:34:38.457Z,50.00
2022-08-22T15:37:29.904Z,50.40
2022-08-22T15:40:12.755Z,51.20
2022-08-22T15:42:44.592Z,51.70
2022-08-22T15:45:33.928Z,52.20
2022-08-22T15:48:08.578Z,53.60
2022-08-22T15:50:41.839Z,53.70
2022-08-22T15:53:24.096Z,54.20
2022-08-22T15:56:29.806Z,54.20
2022-08-22T15:59:48.040Z,54.50
2022-08-22T16:02:29.013Z,54.30
2022-08-22T16:05:20.853Z,54.60
2022-08-22T16:08:00.079Z,54.70
2022-08-22T16:10:36.512Z,54.60
2022-08-22T16:13:33.822Z,54.60
2022-08-22T16:16:07.279Z,54.60
2022-08-22T16:19:21.664Z,54.60
2022-08-22T16:22:14.419Z,55.30
2022-08-22T16:25:10.982Z,56.10
2022-08-22T16:27:55.738Z,56.30
2022-08-22T16:30:38.621Z,56.00
2022-08-22T16:33:17.971Z,56.10
2022-08-22T16:36:24.772Z,56.20
2022-08-22T16:38:57.839Z,56.60
2022-08-22T16:41:36.165Z,56.70
2022-08-22T16:44:24.919Z,56.30
2022-08-22T16:46:55.912Z,56.40
2022-08-22T16:49:31.139Z,56.30
2022-08-22T16:52:37.047Z,55.80
2022-08-22T16:55:28.140Z,55.50
2022-08-22T16:58:07.004Z,53.60
2022-08-22T17:00:51.579Z,51.70
2022-08-22T17:03:29.367Z,50.50
2022-08-22T17:06:16.132Z,49.50
2022-08-22T17:08:58.347Z,49.10
2022-08-22T17:11:42.413Z,49.70
2022-08-22T17:14:21.941Z,51.20
2022-08-22T17:17:06.911Z,52.10
2022-08-22T17:19:56.184Z,52.50
2022-08-22T17:22:33.047Z,52.70
2022-08-22T17:25:15.100Z,53.40
2022-08-22T17:27:48.114Z,53.80
2022-08-22T17:30:23.767Z,55.40
2022-08-22T17:33:12.331Z,55.50
2022-08-22T17:35:59.202Z,55.40
2022-08-22T17:38:42.284Z,55.80
2022-08-22T17:41:27.711Z,56.30
2022-08-22T17:44:03.405Z,57.60
2022-08-22T17:46:42.853Z,59.10
2022-08-22T17:49:21.858Z,59.30
2022-08-22T17:51:58.462Z,59.40
2022-08-22T17:54:34.419Z,60.00
2022-08-22T17:57:07.972Z,61.00
2022-08-22T17:59:46.786Z,61.60
2022-08-22T18:02:20.311Z,62.10
2022-08-22T18:05:01.838Z,62.60
2022-08-22T18:07:43.002Z,62.30
2022-08-22T18:10:23.467Z,62.90
2022-08-22T18:13:02.411Z,63.00
2022-08-22T18:15:43.672Z,63.20
2022-08-22T18:18:28.236Z,63.50
2022-08-22T18:21:04.520Z,63.90
2022-08-22T18:23:40.146Z,64.50
2022-08-22T18:26:24.739Z,64.60
2022-08-22T18:29:01.395Z,65.00
2022-08-22T18:31:41.335Z,65.40
2022-08-22T18:34:19.885Z,66.00
2022-08-22T18:36:57.349Z,66.30
2022-08-22T18:39:31.209Z,66.50
2022-08-22T18:42:07.082Z,66.60
2022-08-22T18:44:40.034Z,67.10
2022-08-22T18:47:18.463Z,67.20
2022-08-22T18:49:54.442Z,67.90
2022-08-22T18:52:41.051Z,67.90
2022-08-22T18:55:27.632Z,68.10
2022-08-22T18:58:16.537Z,68.40
2022-08-22T19:01:09.996Z,68.50
2022-08-22T19:04:02.460Z,69.80
2022-08-22T19:06:55.358Z,69.40
2022-08-22T19:09:58.225Z,69.60
2022-08-22T19:12:45.202Z,70.10
2022-08-22T19:15:27.820Z,70.50
2022-08-22T19:18:18.572Z,70.70
2022-08-22T19:21:51.153Z,71.00
2022-08-22T19:24:59.802Z,71.20
2022-08-22T19:27:31.587Z,72.00
2022-08-22T19:30:03.156Z,71.80
2022-08-22T19:33:05.329Z,72.00
2022-08-22T19:36:15.635Z,71.80
2022-08-22T19:38:54.723Z,72.00
2022-08-22T19:41:53.008Z,72.40
2022-08-22T19:44:40.631Z,73.10
2022-08-22T19:47:25.690Z,72.40
2022-08-22T19:50:02.039Z,72.40
2022-08-22T19:53:04.322Z,72.60
2022-08-22T19:55:57.525Z,72.70
2022-08-22T19:58:36.861Z,72.90
2022-08-22T20:01:13.814Z,73.10
2022-08-22T20:03:51.994Z,73.30
2022-08-22T20:06:44.274Z,73.80
2022-08-22T20:09:40.295Z,73.90
2022-08-22T20:12:16.092Z,73.90
2022-08-22T20:14:48.841Z,73.90
2022-08-22T20:17:40.793Z,74.20
2022-08-22T20:20:18.708Z,74.30
2022-08-22T20:22:54.995Z,74.30
2022-08-22T20:25:43.005Z,74.80
2022-08-22T20:28:38.286Z,74.60
2022-08-22T20:31:13.717Z,74.90
2022-08-22T20:33:46.010Z,75.30
2022-08-22T20:36:28.480Z,75.50
2022-08-22T20:39:02.767Z,75.60
2022-08-22T20:41:36.799Z,76.30
2022-08-22T20:44:13.084Z,76.60
2022-08-22T20:46:55.240Z,77.00
2022-08-22T20:49:28.655Z,77.20
2022-08-22T20:52:00.901Z,77.70
2022-08-22T20:54:32.127Z,77.60
2022-08-22T20:57:02.648Z,77.50
2022-08-22T20:59:36.110Z,78.10
2022-08-22T21:02:20.022Z,78.50
2022-08-22T21:04:53.785Z,79.80
2022-08-22T21:07:26.006Z,80.50
2022-08-22T21:10:25.229Z,79.70
2022-08-22T21:13:06.018Z,80.00
2022-08-22T21:15:38.365Z,80.10
2022-08-22T21:18:09.179Z,80.40
2022-08-22T21:20:39.774Z,80.70
2022-08-22T21:23:13.319Z,81.20
2022-08-22T21:25:57.291Z,81.50
2022-08-22T21:28:34.908Z,82.20
2022-08-22T21:31:12.382Z,82.70
2022-08-22T21:33:48.424Z,83.10
2022-08-22T21:36:19.789Z,83.30
2022-08-22T21:38:51.331Z,83.80
2022-08-22T21:41:30.755Z,84.20
2022-08-22T21:44:28.503Z,84.60
2022-08-22T21:46:58.832Z,84.60
2022-08-22T21:49:31.055Z,85.10
2022-08-22T21:51:59.620Z,85.70
2022-08-22T21:54:40.129Z,86.10
2022-08-22T21:57:38.031Z,86.60
2022-08-22T22:00:14.417Z,87.10
2022-08-22T22:02:46.995Z,87.70
2022-08-22T22:05:19.581Z,87.90
2022-08-22T22:07:49.473Z,88.50
2022-08-22T22:10:22.871Z,89.30
2022-08-22T22:12:52.611Z,89.70
2022-08-22T22:15:24.602Z,89.50
2022-08-22T22:17:54.281Z,89.20
2022-08-22T22:20:27.980Z,89.40
2022-08-22T22:22:57.266Z,89.90
2022-08-22T22:25:40.998Z,90.50
2022-08-22T22:28:14.194Z,90.90
2022-08-22T22:30:43.941Z,91.20
2022-08-22T22:33:13.215Z,91.60
2022-08-22T22:35:43.488Z,91.60
2022-08-22T22:38:13.125Z,92.00
2022-08-22T22:40:42.825Z,92.10
2022-08-22T22:51:38.472Z,93.70
2022-08-22T22:54:07.190Z,94.20
2022-08-22T22:56:39.701Z,94.10
2022-08-22T22:59:13.071Z,94.30
2022-08-22T23:02:02.640Z,94.60
2022-08-22T23:04:35.330Z,94.70
2022-08-22T23:07:06.639Z,94.90
2022-08-22T23:09:38.768Z,95.00
2022-08-22T23:12:15.102Z,95.20
2022-08-22T23:14:43.970Z,95.00
2022-08-22T23:17:12.516Z,95.10
2022-08-22T23:19:42.319Z,95.00
2022-08-22T23:22:16.676Z,94.90
2022-08-22T23:24:46.011Z,94.90
2022-08-22T23:27:14.597Z,95.00
2022-08-22T23:29:43.809Z,95.00
2022-08-22T23:32:13.685Z,95.60
2022-08-22T23:34:46.781Z,95.90
2022-08-22T23:37:18.946Z,96.00
2022-08-22T23:39:48.025Z,96.20
2022-08-22T23:42:18.202Z,96.50
2022-08-22T23:44:47.712Z,96.20
2022-08-22T23:47:17.275Z,96.30
2022-08-22T23:49:45.992Z,96.70
2022-08-22T23:52:16.407Z,96.90
2022-08-22T23:54:45.081Z,97.10
2022-08-22T23:57:13.745Z,97.00
2022-08-22T23:59:48.016Z,97.50
